Milwaukee, Wisconsin
Traffic Map
Current Weather Conditions
Milwaukee, Wisconsin
Overcast Haze
Overcast
63°
Feels Like: 63°
Wind Chill: 63° Ceiling: 200
Heat Index: 63° Visibility: 1mi
Dew Point: 61° Wind: 0mph
Humidity: 93% Direction: ° ()
Pressure: 30.03in Gusts: 0mph
Raw Report DataKMKE 300744Z 00000KT 1SM BR OVC002 17/16 A3003 RMK AO2 SFC VIS 2 1/2 T01720161
Traffic Incident Summary
Active as of:
Severity:
Category:
InformationThere was an issue retrieving the traffic information for this location. Please try a different location or try again shortly.
Advertisements
Track Severe Weather on mobile